Terminal Aerodrome Forecast
Issued by NWS Louisville, KY

Home | Current Version | Previous Version | Text Only | Print | Product List | Glossary On
Versions: 1 2 3 4 5 6 7 8 9 10 11 12 13 14 15 16 17 18 19 20 21
000
FTUS43 KLMK 170500
TAFSDF
TAF
KSDF 170520Z 1706/1812 28010KT P6SM OVC010
      TEMPO 1706/1709 6SM -DZ BR OVC009
     FM171800 27006KT P6SM BKN015
     FM180600 35003KT P6SM SCT020 BKN100=

USA.gov is the U.S. government's official web portal to all federal, state and local government web resources and services.